sensor_id;sensor_type;location;lat;lon;timestamp;P1;durP1;ratioP1;P2;durP2;ratioP2
43680;SDS011;29281;50.356;30.894;2022-08-21T00:00:23;19.25;;;5.53;;
43680;SDS011;29281;50.356;30.894;2022-08-21T00:01:30;20.72;;;5.71;;
43680;SDS011;29281;50.356;30.894;2022-08-21T00:02:34;17.18;;;5.71;;
43680;SDS011;29281;50.356;30.894;2022-08-21T00:03:39;17.09;;;6.02;;
43680;SDS011;29281;50.356;30.894;2022-08-21T00:04:43;16.57;;;6.71;;
43680;SDS011;29281;50.356;30.894;2022-08-21T00:05:52;14.92;;;5.36;;
43680;SDS011;29281;50.356;30.894;2022-08-21T00:06:56;18.67;;;5.74;;
43680;SDS011;29281;50.356;30.894;2022-08-21T00:08:05;12.96;;;5.41;;
43680;SDS011;29281;50.356;30.894;2022-08-21T00:09:09;16.16;;;5.18;;
43680;SDS011;29281;50.356;30.894;2022-08-21T00:10:19;15.65;;;5.13;;
43680;SDS011;29281;50.356;30.894;2022-08-21T00:11:24;17.93;;;5.23;;
43680;SDS011;29281;50.356;30.894;2022-08-21T00:12:30;15.66;;;5.26;;
43680;SDS011;29281;50.356;30.894;2022-08-21T00:13:34;16.82;;;6.17;;
43680;SDS011;29281;50.356;30.894;2022-08-21T00:14:39;15.36;;;5.46;;
43680;SDS011;29281;50.356;30.894;2022-08-21T00:15:44;16.51;;;5.45;;
43680;SDS011;29281;50.356;30.894;2022-08-21T00:16:48;17.58;;;5.21;;
43680;SDS011;29281;50.356;30.894;2022-08-21T00:17:51;20.70;;;5.83;;
43680;SDS011;29281;50.356;30.894;2022-08-21T00:18:54;17.19;;;5.25;;
43680;SDS011;29281;50.356;30.894;2022-08-21T00:19:58;22.40;;;5.45;;
43680;SDS011;29281;50.356;30.894;2022-08-21T00:21:02;15.77;;;5.40;;
43680;SDS011;29281;50.356;30.894;2022-08-21T00:22:05;18.18;;;5.19;;
43680;SDS011;29281;50.356;30.894;2022-08-21T00:23:09;16.59;;;5.46;;
43680;SDS011;29281;50.356;30.894;2022-08-21T00:24:14;15.74;;;5.09;;
43680;SDS011;29281;50.356;30.894;2022-08-21T00:25:21;17.16;;;5.79;;
43680;SDS011;29281;50.356;30.894;2022-08-21T00:26:28;16.95;;;5.87;;
43680;SDS011;29281;50.356;30.894;2022-08-21T00:27:32;15.14;;;5.18;;
43680;SDS011;29281;50.356;30.894;2022-08-21T00:28:36;16.35;;;5.39;;
43680;SDS011;29281;50.356;30.894;2022-08-21T00:29:39;18.05;;;5.22;;
43680;SDS011;29281;50.356;30.894;2022-08-21T00:30:45;14.08;;;5.25;;
43680;SDS011;29281;50.356;30.894;2022-08-21T00:31:49;20.13;;;5.73;;
43680;SDS011;29281;50.356;30.894;2022-08-21T00:32:54;15.79;;;5.96;;
43680;SDS011;29281;50.356;30.894;2022-08-21T00:34:00;18.73;;;5.67;;
43680;SDS011;29281;50.356;30.894;2022-08-21T00:35:09;19.25;;;5.01;;
43680;SDS011;29281;50.356;30.894;2022-08-21T00:36:12;14.16;;;5.16;;
43680;SDS011;29281;50.356;30.894;2022-08-21T00:37:17;19.06;;;5.59;;
43680;SDS011;29281;50.356;30.894;2022-08-21T00:38:22;18.81;;;5.26;;
43680;SDS011;29281;50.356;30.894;2022-08-21T00:39:26;13.83;;;4.94;;
43680;SDS011;29281;50.356;30.894;2022-08-21T00:40:33;13.38;;;4.91;;
43680;SDS011;29281;50.356;30.894;2022-08-21T00:41:49;17.47;;;5.41;;
43680;SDS011;29281;50.356;30.894;2022-08-21T00:42:54;17.64;;;4.84;;
43680;SDS011;29281;50.356;30.894;2022-08-21T00:44:01;16.73;;;4.99;;
43680;SDS011;29281;50.356;30.894;2022-08-21T00:45:06;17.58;;;5.16;;
43680;SDS011;29281;50.356;30.894;2022-08-21T00:46:12;16.49;;;4.85;;
43680;SDS011;29281;50.356;30.894;2022-08-21T00:47:16;15.91;;;5.43;;
43680;SDS011;29281;50.356;30.894;2022-08-21T00:48:21;17.57;;;5.17;;
43680;SDS011;29281;50.356;30.894;2022-08-21T00:49:28;19.14;;;5.68;;
43680;SDS011;29281;50.356;30.894;2022-08-21T00:50:33;13.35;;;4.71;;
43680;SDS011;29281;50.356;30.894;2022-08-21T00:51:46;13.49;;;4.39;;
43680;SDS011;29281;50.356;30.894;2022-08-21T00:53:03;13.98;;;5.02;;
43680;SDS011;29281;50.356;30.894;2022-08-21T00:54:10;14.18;;;4.61;;
43680;SDS011;29281;50.356;30.894;2022-08-21T00:55:18;13.17;;;4.97;;
43680;SDS011;29281;50.356;30.894;2022-08-21T00:56:29;14.86;;;5.31;;
43680;SDS011;29281;50.356;30.894;2022-08-21T00:57:36;12.79;;;4.94;;
43680;SDS011;29281;50.356;30.894;2022-08-21T00:58:43;17.63;;;4.93;;
43680;SDS011;29281;50.356;30.894;2022-08-21T00:59:57;13.01;;;4.66;;
43680;SDS011;29281;50.356;30.894;2022-08-21T01:01:04;17.71;;;4.65;;
43680;SDS011;29281;50.356;30.894;2022-08-21T01:02:11;14.78;;;5.18;;
43680;SDS011;29281;50.356;30.894;2022-08-21T01:03:22;15.49;;;5.19;;
43680;SDS011;29281;50.356;30.894;2022-08-21T01:04:28;15.86;;;5.23;;
43680;SDS011;29281;50.356;30.894;2022-08-21T01:05:32;15.78;;;5.23;;
43680;SDS011;29281;50.356;30.894;2022-08-21T01:06:37;14.34;;;4.98;;
43680;SDS011;29281;50.356;30.894;2022-08-21T01:07:40;14.76;;;5.06;;
43680;SDS011;29281;50.356;30.894;2022-08-21T01:08:45;14.95;;;4.88;;
43680;SDS011;29281;50.356;30.894;2022-08-21T01:09:52;14.26;;;5.13;;
43680;SDS011;29281;50.356;30.894;2022-08-21T01:10:58;14.61;;;4.76;;
43680;SDS011;29281;50.356;30.894;2022-08-21T01:12:12;15.91;;;5.29;;
43680;SDS011;29281;50.356;30.894;2022-08-21T01:13:17;14.49;;;5.15;;
43680;SDS011;29281;50.356;30.894;2022-08-21T01:14:24;15.73;;;5.08;;
43680;SDS011;29281;50.356;30.894;2022-08-21T01:15:30;14.30;;;4.53;;
43680;SDS011;29281;50.356;30.894;2022-08-21T01:16:36;16.63;;;5.17;;
43680;SDS011;29281;50.356;30.894;2022-08-21T01:17:40;15.12;;;4.70;;
43680;SDS011;29281;50.356;30.894;2022-08-21T01:18:44;16.19;;;5.24;;
43680;SDS011;29281;50.356;30.894;2022-08-21T01:19:50;10.44;;;5.28;;
43680;SDS011;29281;50.356;30.894;2022-08-21T01:21:01;12.94;;;5.06;;
43680;SDS011;29281;50.356;30.894;2022-08-21T01:23:16;16.44;;;4.76;;
43680;SDS011;29281;50.356;30.894;2022-08-21T01:24:20;17.88;;;4.99;;
43680;SDS011;29281;50.356;30.894;2022-08-21T01:25:24;15.66;;;5.27;;
43680;SDS011;29281;50.356;30.894;2022-08-21T01:26:30;18.95;;;4.77;;
43680;SDS011;29281;50.356;30.894;2022-08-21T01:27:38;11.59;;;4.82;;
43680;SDS011;29281;50.356;30.894;2022-08-21T01:28:48;13.04;;;4.97;;
43680;SDS011;29281;50.356;30.894;2022-08-21T01:30:06;12.73;;;4.65;;
43680;SDS011;29281;50.356;30.894;2022-08-21T01:31:16;14.32;;;4.90;;
43680;SDS011;29281;50.356;30.894;2022-08-21T01:32:27;12.90;;;4.76;;
43680;SDS011;29281;50.356;30.894;2022-08-21T01:33:37;12.59;;;4.62;;
43680;SDS011;29281;50.356;30.894;2022-08-21T01:34:40;19.95;;;4.88;;
43680;SDS011;29281;50.356;30.894;2022-08-21T01:35:47;16.97;;;5.01;;
43680;SDS011;29281;50.356;30.894;2022-08-21T01:36:51;16.47;;;4.97;;
43680;SDS011;29281;50.356;30.894;2022-08-21T01:37:54;12.66;;;4.69;;
43680;SDS011;29281;50.356;30.894;2022-08-21T01:38:59;19.24;;;5.35;;
43680;SDS011;29281;50.356;30.894;2022-08-21T01:40:04;11.88;;;5.29;;
43680;SDS011;29281;50.356;30.894;2022-08-21T01:41:10;15.07;;;4.96;;
43680;SDS011;29281;50.356;30.894;2022-08-21T01:42:14;12.02;;;4.62;;
43680;SDS011;29281;50.356;30.894;2022-08-21T01:43:18;16.53;;;4.84;;
43680;SDS011;29281;50.356;30.894;2022-08-21T01:44:24;16.36;;;4.93;;
43680;SDS011;29281;50.356;30.894;2022-08-21T01:45:29;17.81;;;5.58;;
43680;SDS011;29281;50.356;30.894;2022-08-21T01:46:35;15.19;;;5.16;;
43680;SDS011;29281;50.356;30.894;2022-08-21T01:47:45;15.11;;;4.83;;
43680;SDS011;29281;50.356;30.894;2022-08-21T01:48:49;21.74;;;5.36;;
43680;SDS011;29281;50.356;30.894;2022-08-21T01:49:54;16.39;;;5.24;;
43680;SDS011;29281;50.356;30.894;2022-08-21T01:51:01;12.83;;;4.66;;
43680;SDS011;29281;50.356;30.894;2022-08-21T01:52:16;18.11;;;4.67;;
43680;SDS011;29281;50.356;30.894;2022-08-21T01:53:20;11.52;;;4.42;;
43680;SDS011;29281;50.356;30.894;2022-08-21T01:54:30;18.22;;;4.93;;
43680;SDS011;29281;50.356;30.894;2022-08-21T01:55:32;11.71;;;4.30;;
43680;SDS011;29281;50.356;30.894;2022-08-21T01:56:39;13.57;;;4.80;;
43680;SDS011;29281;50.356;30.894;2022-08-21T01:57:45;12.08;;;4.57;;
43680;SDS011;29281;50.356;30.894;2022-08-21T01:58:50;15.54;;;4.62;;
43680;SDS011;29281;50.356;30.894;2022-08-21T01:59:54;15.85;;;5.04;;
43680;SDS011;29281;50.356;30.894;2022-08-21T02:01:00;15.34;;;4.30;;
43680;SDS011;29281;50.356;30.894;2022-08-21T02:02:08;15.63;;;4.96;;
43680;SDS011;29281;50.356;30.894;2022-08-21T02:03:17;15.68;;;4.61;;
43680;SDS011;29281;50.356;30.894;2022-08-21T02:04:27;13.57;;;4.91;;
43680;SDS011;29281;50.356;30.894;2022-08-21T02:05:31;13.49;;;5.11;;
43680;SDS011;29281;50.356;30.894;2022-08-21T02:06:36;18.67;;;4.77;;
43680;SDS011;29281;50.356;30.894;2022-08-21T02:07:41;16.33;;;4.95;;
43680;SDS011;29281;50.356;30.894;2022-08-21T02:08:50;16.21;;;5.02;;
43680;SDS011;29281;50.356;30.894;2022-08-21T02:09:53;17.37;;;4.71;;
43680;SDS011;29281;50.356;30.894;2022-08-21T02:10:59;14.41;;;4.78;;
43680;SDS011;29281;50.356;30.894;2022-08-21T02:12:04;12.63;;;4.44;;
43680;SDS011;29281;50.356;30.894;2022-08-21T02:13:08;17.03;;;5.03;;
43680;SDS011;29281;50.356;30.894;2022-08-21T02:14:16;12.93;;;4.74;;
43680;SDS011;29281;50.356;30.894;2022-08-21T02:15:23;13.45;;;3.94;;
43680;SDS011;29281;50.356;30.894;2022-08-21T02:16:28;20.84;;;5.56;;
43680;SDS011;29281;50.356;30.894;2022-08-21T02:17:41;15.04;;;5.02;;
43680;SDS011;29281;50.356;30.894;2022-08-21T02:18:47;13.14;;;4.38;;
43680;SDS011;29281;50.356;30.894;2022-08-21T02:19:52;17.27;;;4.96;;
43680;SDS011;29281;50.356;30.894;2022-08-21T02:20:56;15.89;;;4.78;;
43680;SDS011;29281;50.356;30.894;2022-08-21T02:22:03;13.96;;;4.72;;
43680;SDS011;29281;50.356;30.894;2022-08-21T02:23:11;13.91;;;4.76;;
43680;SDS011;29281;50.356;30.894;2022-08-21T02:24:16;19.98;;;5.01;;
43680;SDS011;29281;50.356;30.894;2022-08-21T02:25:20;11.61;;;3.99;;
43680;SDS011;29281;50.356;30.894;2022-08-21T02:26:31;16.99;;;4.70;;
43680;SDS011;29281;50.356;30.894;2022-08-21T02:27:41;18.81;;;4.96;;
43680;SDS011;29281;50.356;30.894;2022-08-21T02:28:47;16.46;;;5.53;;
43680;SDS011;29281;50.356;30.894;2022-08-21T02:29:53;15.43;;;5.02;;
43680;SDS011;29281;50.356;30.894;2022-08-21T02:30:57;13.93;;;4.79;;
43680;SDS011;29281;50.356;30.894;2022-08-21T02:32:01;15.66;;;5.61;;
43680;SDS011;29281;50.356;30.894;2022-08-21T02:33:05;13.28;;;5.49;;
43680;SDS011;29281;50.356;30.894;2022-08-21T02:34:10;13.72;;;4.49;;
43680;SDS011;29281;50.356;30.894;2022-08-21T02:35:13;14.77;;;4.72;;
43680;SDS011;29281;50.356;30.894;2022-08-21T02:36:22;14.57;;;4.80;;
43680;SDS011;29281;50.356;30.894;2022-08-21T02:37:27;14.48;;;4.84;;
43680;SDS011;29281;50.356;30.894;2022-08-21T02:38:31;18.04;;;4.72;;
43680;SDS011;29281;50.356;30.894;2022-08-21T02:39:39;18.83;;;5.07;;
43680;SDS011;29281;50.356;30.894;2022-08-21T02:40:44;21.71;;;4.76;;
43680;SDS011;29281;50.356;30.894;2022-08-21T02:41:53;19.32;;;4.97;;
43680;SDS011;29281;50.356;30.894;2022-08-21T02:42:58;13.08;;;4.73;;
43680;SDS011;29281;50.356;30.894;2022-08-21T02:44:05;18.51;;;5.20;;
43680;SDS011;29281;50.356;30.894;2022-08-21T02:45:08;18.69;;;4.65;;
43680;SDS011;29281;50.356;30.894;2022-08-21T02:46:16;11.31;;;4.22;;
43680;SDS011;29281;50.356;30.894;2022-08-21T02:47:21;15.23;;;4.34;;
43680;SDS011;29281;50.356;30.894;2022-08-21T02:48:26;12.47;;;4.05;;
43680;SDS011;29281;50.356;30.894;2022-08-21T02:49:33;14.66;;;4.56;;
43680;SDS011;29281;50.356;30.894;2022-08-21T02:50:42;16.36;;;4.73;;
43680;SDS011;29281;50.356;30.894;2022-08-21T02:51:50;11.27;;;4.36;;
43680;SDS011;29281;50.356;30.894;2022-08-21T02:52:53;10.64;;;4.81;;
43680;SDS011;29281;50.356;30.894;2022-08-21T02:53:57;15.98;;;4.98;;
43680;SDS011;29281;50.356;30.894;2022-08-21T02:55:03;13.98;;;4.48;;
43680;SDS011;29281;50.356;30.894;2022-08-21T02:56:11;14.78;;;4.87;;
43680;SDS011;29281;50.356;30.894;2022-08-21T02:58:32;20.49;;;4.98;;
43680;SDS011;29281;50.356;30.894;2022-08-21T02:59:38;11.17;;;3.92;;
43680;SDS011;29281;50.356;30.894;2022-08-21T03:00:43;18.44;;;5.38;;
43680;SDS011;29281;50.356;30.894;2022-08-21T03:01:47;16.57;;;5.45;;
43680;SDS011;29281;50.356;30.894;2022-08-21T03:02:52;15.51;;;4.52;;
43680;SDS011;29281;50.356;30.894;2022-08-21T03:03:58;14.91;;;4.63;;
43680;SDS011;29281;50.356;30.894;2022-08-21T03:05:05;13.18;;;4.68;;
43680;SDS011;29281;50.356;30.894;2022-08-21T03:06:12;15.05;;;4.92;;
43680;SDS011;29281;50.356;30.894;2022-08-21T03:07:18;20.39;;;4.84;;
43680;SDS011;29281;50.356;30.894;2022-08-21T03:08:24;16.07;;;4.37;;
43680;SDS011;29281;50.356;30.894;2022-08-21T03:09:36;15.72;;;4.73;;
43680;SDS011;29281;50.356;30.894;2022-08-21T03:10:42;15.58;;;4.75;;
43680;SDS011;29281;50.356;30.894;2022-08-21T03:11:51;16.52;;;4.52;;
43680;SDS011;29281;50.356;30.894;2022-08-21T03:12:56;14.49;;;4.11;;
43680;SDS011;29281;50.356;30.894;2022-08-21T03:14:00;16.12;;;4.90;;
43680;SDS011;29281;50.356;30.894;2022-08-21T03:15:11;15.87;;;4.32;;
43680;SDS011;29281;50.356;30.894;2022-08-21T03:16:15;23.52;;;5.34;;
43680;SDS011;29281;50.356;30.894;2022-08-21T03:17:20;13.04;;;4.44;;
43680;SDS011;29281;50.356;30.894;2022-08-21T03:18:31;17.65;;;4.75;;
43680;SDS011;29281;50.356;30.894;2022-08-21T03:19:35;14.31;;;4.23;;
43680;SDS011;29281;50.356;30.894;2022-08-21T03:20:41;17.06;;;4.20;;
43680;SDS011;29281;50.356;30.894;2022-08-21T03:21:46;21.07;;;4.48;;
43680;SDS011;29281;50.356;30.894;2022-08-21T03:22:49;14.86;;;4.53;;
43680;SDS011;29281;50.356;30.894;2022-08-21T03:23:54;17.67;;;5.08;;
43680;SDS011;29281;50.356;30.894;2022-08-21T03:24:58;15.03;;;4.25;;
43680;SDS011;29281;50.356;30.894;2022-08-21T03:26:04;12.63;;;4.33;;
43680;SDS011;29281;50.356;30.894;2022-08-21T03:27:09;19.08;;;4.31;;
43680;SDS011;29281;50.356;30.894;2022-08-21T03:28:13;12.65;;;4.21;;
43680;SDS011;29281;50.356;30.894;2022-08-21T03:29:19;17.59;;;4.52;;
43680;SDS011;29281;50.356;30.894;2022-08-21T03:30:25;14.12;;;4.73;;
43680;SDS011;29281;50.356;30.894;2022-08-21T03:31:32;15.53;;;4.59;;
43680;SDS011;29281;50.356;30.894;2022-08-21T03:32:37;14.36;;;4.71;;
43680;SDS011;29281;50.356;30.894;2022-08-21T03:33:41;12.33;;;3.84;;
43680;SDS011;29281;50.356;30.894;2022-08-21T03:34:45;12.02;;;4.11;;
43680;SDS011;29281;50.356;30.894;2022-08-21T03:35:50;17.11;;;4.59;;
43680;SDS011;29281;50.356;30.894;2022-08-21T03:37:08;16.11;;;4.48;;
43680;SDS011;29281;50.356;30.894;2022-08-21T03:38:12;13.60;;;4.43;;
43680;SDS011;29281;50.356;30.894;2022-08-21T03:39:16;17.33;;;3.79;;
43680;SDS011;29281;50.356;30.894;2022-08-21T03:40:25;15.59;;;4.21;;
43680;SDS011;29281;50.356;30.894;2022-08-21T03:41:33;13.61;;;4.26;;
43680;SDS011;29281;50.356;30.894;2022-08-21T03:42:37;18.68;;;4.38;;
43680;SDS011;29281;50.356;30.894;2022-08-21T03:43:42;9.59;;;3.92;;
43680;SDS011;29281;50.356;30.894;2022-08-21T03:44:46;11.62;;;4.00;;
43680;SDS011;29281;50.356;30.894;2022-08-21T03:45:51;14.23;;;4.31;;
43680;SDS011;29281;50.356;30.894;2022-08-21T03:46:57;17.61;;;4.33;;
43680;SDS011;29281;50.356;30.894;2022-08-21T03:48:01;19.86;;;4.08;;
43680;SDS011;29281;50.356;30.894;2022-08-21T03:49:07;14.56;;;4.21;;
43680;SDS011;29281;50.356;30.894;2022-08-21T03:50:11;18.79;;;4.41;;
43680;SDS011;29281;50.356;30.894;2022-08-21T03:51:18;17.80;;;4.32;;
43680;SDS011;29281;50.356;30.894;2022-08-21T03:52:23;19.26;;;4.45;;
43680;SDS011;29281;50.356;30.894;2022-08-21T03:53:31;18.09;;;5.04;;
43680;SDS011;29281;50.356;30.894;2022-08-21T03:54:32;10.69;;;3.54;;
43680;SDS011;29281;50.356;30.894;2022-08-21T03:55:37;19.56;;;4.02;;
43680;SDS011;29281;50.356;30.894;2022-08-21T03:56:42;11.73;;;4.18;;
43680;SDS011;29281;50.356;30.894;2022-08-21T03:57:47;16.95;;;4.39;;
43680;SDS011;29281;50.356;30.894;2022-08-21T03:58:54;14.17;;;3.85;;
43680;SDS011;29281;50.356;30.894;2022-08-21T03:59:57;15.13;;;4.07;;
43680;SDS011;29281;50.356;30.894;2022-08-21T04:01:06;14.44;;;4.42;;
43680;SDS011;29281;50.356;30.894;2022-08-21T04:02:10;12.16;;;3.98;;
43680;SDS011;29281;50.356;30.894;2022-08-21T04:03:14;14.88;;;4.18;;
43680;SDS011;29281;50.356;30.894;2022-08-21T04:04:17;16.78;;;4.29;;
43680;SDS011;29281;50.356;30.894;2022-08-21T04:05:20;18.79;;;3.87;;
43680;SDS011;29281;50.356;30.894;2022-08-21T04:06:31;11.71;;;4.00;;
43680;SDS011;29281;50.356;30.894;2022-08-21T04:07:37;14.20;;;4.24;;
43680;SDS011;29281;50.356;30.894;2022-08-21T04:08:41;17.38;;;4.25;;
43680;SDS011;29281;50.356;30.894;2022-08-21T04:09:45;11.42;;;3.72;;
43680;SDS011;29281;50.356;30.894;2022-08-21T04:10:52;13.05;;;3.91;;
43680;SDS011;29281;50.356;30.894;2022-08-21T04:12:08;13.41;;;3.87;;
43680;SDS011;29281;50.356;30.894;2022-08-21T04:13:13;16.85;;;4.12;;
43680;SDS011;29281;50.356;30.894;2022-08-21T04:14:18;15.76;;;4.18;;
43680;SDS011;29281;50.356;30.894;2022-08-21T04:15:24;17.94;;;4.83;;
43680;SDS011;29281;50.356;30.894;2022-08-21T04:16:32;13.68;;;3.97;;
43680;SDS011;29281;50.356;30.894;2022-08-21T04:17:38;17.10;;;4.91;;
43680;SDS011;29281;50.356;30.894;2022-08-21T04:18:44;14.88;;;3.89;;
43680;SDS011;29281;50.356;30.894;2022-08-21T04:19:48;15.15;;;3.73;;
43680;SDS011;29281;50.356;30.894;2022-08-21T04:20:56;16.36;;;4.56;;
43680;SDS011;29281;50.356;30.894;2022-08-21T04:22:01;11.06;;;3.94;;
43680;SDS011;29281;50.356;30.894;2022-08-21T04:23:05;9.85;;;3.85;;
43680;SDS011;29281;50.356;30.894;2022-08-21T04:24:09;14.21;;;3.93;;
43680;SDS011;29281;50.356;30.894;2022-08-21T04:25:15;17.12;;;3.89;;
43680;SDS011;29281;50.356;30.894;2022-08-21T04:26:22;13.85;;;4.37;;
43680;SDS011;29281;50.356;30.894;2022-08-21T04:27:27;14.87;;;4.36;;
43680;SDS011;29281;50.356;30.894;2022-08-21T04:28:30;15.05;;;4.41;;
43680;SDS011;29281;50.356;30.894;2022-08-21T04:29:37;15.51;;;3.98;;
43680;SDS011;29281;50.356;30.894;2022-08-21T04:30:42;12.69;;;4.00;;
43680;SDS011;29281;50.356;30.894;2022-08-21T04:31:54;15.71;;;4.11;;
43680;SDS011;29281;50.356;30.894;2022-08-21T04:32:58;16.85;;;4.65;;
43680;SDS011;29281;50.356;30.894;2022-08-21T04:34:02;14.98;;;4.34;;
43680;SDS011;29281;50.356;30.894;2022-08-21T04:35:15;11.73;;;3.71;;
43680;SDS011;29281;50.356;30.894;2022-08-21T04:36:27;13.04;;;4.12;;
43680;SDS011;29281;50.356;30.894;2022-08-21T04:37:30;17.51;;;4.21;;
43680;SDS011;29281;50.356;30.894;2022-08-21T04:38:36;11.09;;;4.27;;
43680;SDS011;29281;50.356;30.894;2022-08-21T04:39:43;17.33;;;4.34;;
43680;SDS011;29281;50.356;30.894;2022-08-21T04:40:48;18.58;;;4.88;;
43680;SDS011;29281;50.356;30.894;2022-08-21T04:41:53;18.67;;;4.90;;
43680;SDS011;29281;50.356;30.894;2022-08-21T04:43:00;13.60;;;3.98;;
43680;SDS011;29281;50.356;30.894;2022-08-21T04:44:06;16.31;;;4.96;;
43680;SDS011;29281;50.356;30.894;2022-08-21T04:45:09;15.86;;;4.76;;
43680;SDS011;29281;50.356;30.894;2022-08-21T04:46:15;18.13;;;4.76;;
43680;SDS011;29281;50.356;30.894;2022-08-21T04:47:21;16.02;;;4.70;;
43680;SDS011;29281;50.356;30.894;2022-08-21T04:48:27;13.60;;;4.04;;
43680;SDS011;29281;50.356;30.894;2022-08-21T04:49:35;14.46;;;4.29;;
43680;SDS011;29281;50.356;30.894;2022-08-21T04:50:45;11.67;;;4.11;;
43680;SDS011;29281;50.356;30.894;2022-08-21T04:52:54;13.64;;;4.66;;
43680;SDS011;29281;50.356;30.894;2022-08-21T04:55:24;19.12;;;4.24;;
43680;SDS011;29281;50.356;30.894;2022-08-21T04:56:38;15.68;;;4.29;;
43680;SDS011;29281;50.356;30.894;2022-08-21T04:57:43;18.60;;;4.18;;
43680;SDS011;29281;50.356;30.894;2022-08-21T04:58:52;14.04;;;4.68;;
43680;SDS011;29281;50.356;30.894;2022-08-21T05:00:03;13.87;;;4.17;;
43680;SDS011;29281;50.356;30.894;2022-08-21T05:01:13;14.24;;;5.09;;
43680;SDS011;29281;50.356;30.894;2022-08-21T05:02:19;12.25;;;4.21;;
43680;SDS011;29281;50.356;30.894;2022-08-21T05:03:26;14.58;;;4.17;;
43680;SDS011;29281;50.356;30.894;2022-08-21T05:04:32;17.43;;;4.48;;
43680;SDS011;29281;50.356;30.894;2022-08-21T05:05:40;20.17;;;4.73;;
43680;SDS011;29281;50.356;30.894;2022-08-21T05:06:45;15.56;;;4.53;;
43680;SDS011;29281;50.356;30.894;2022-08-21T05:07:51;15.78;;;4.40;;
43680;SDS011;29281;50.356;30.894;2022-08-21T05:08:56;17.46;;;4.30;;
43680;SDS011;29281;50.356;30.894;2022-08-21T05:10:03;15.26;;;4.05;;
43680;SDS011;29281;50.356;30.894;2022-08-21T05:11:07;18.43;;;4.29;;
43680;SDS011;29281;50.356;30.894;2022-08-21T05:12:11;14.50;;;3.96;;
43680;SDS011;29281;50.356;30.894;2022-08-21T05:13:14;13.03;;;4.25;;
43680;SDS011;29281;50.356;30.894;2022-08-21T05:14:21;12.56;;;4.09;;
43680;SDS011;29281;50.356;30.894;2022-08-21T05:15:25;12.08;;;4.12;;
43680;SDS011;29281;50.356;30.894;2022-08-21T05:16:31;9.51;;;3.81;;
43680;SDS011;29281;50.356;30.894;2022-08-21T05:17:41;15.83;;;4.43;;
43680;SDS011;29281;50.356;30.894;2022-08-21T05:18:47;15.38;;;3.73;;
43680;SDS011;29281;50.356;30.894;2022-08-21T05:19:51;14.68;;;4.54;;
43680;SDS011;29281;50.356;30.894;2022-08-21T05:20:56;12.50;;;3.88;;
43680;SDS011;29281;50.356;30.894;2022-08-21T05:21:58;16.44;;;4.05;;
43680;SDS011;29281;50.356;30.894;2022-08-21T05:23:07;16.19;;;3.80;;
43680;SDS011;29281;50.356;30.894;2022-08-21T05:24:13;12.96;;;3.82;;
43680;SDS011;29281;50.356;30.894;2022-08-21T05:25:18;11.46;;;3.92;;
43680;SDS011;29281;50.356;30.894;2022-08-21T05:26:23;16.94;;;4.23;;
43680;SDS011;29281;50.356;30.894;2022-08-21T05:27:26;18.05;;;4.36;;
43680;SDS011;29281;50.356;30.894;2022-08-21T05:28:33;15.94;;;3.98;;
43680;SDS011;29281;50.356;30.894;2022-08-21T05:29:36;18.36;;;4.46;;
43680;SDS011;29281;50.356;30.894;2022-08-21T05:30:40;13.86;;;3.83;;
43680;SDS011;29281;50.356;30.894;2022-08-21T05:31:45;18.45;;;4.18;;
43680;SDS011;29281;50.356;30.894;2022-08-21T05:32:55;13.13;;;4.13;;
43680;SDS011;29281;50.356;30.894;2022-08-21T05:34:00;16.29;;;3.74;;
43680;SDS011;29281;50.356;30.894;2022-08-21T05:35:05;17.39;;;4.43;;
43680;SDS011;29281;50.356;30.894;2022-08-21T05:36:12;14.40;;;3.69;;
43680;SDS011;29281;50.356;30.894;2022-08-21T05:37:17;11.76;;;3.79;;
43680;SDS011;29281;50.356;30.894;2022-08-21T05:38:26;14.11;;;3.72;;
43680;SDS011;29281;50.356;30.894;2022-08-21T05:39:32;13.88;;;4.21;;
43680;SDS011;29281;50.356;30.894;2022-08-21T05:40:42;11.89;;;3.74;;
43680;SDS011;29281;50.356;30.894;2022-08-21T05:41:46;15.61;;;3.71;;
43680;SDS011;29281;50.356;30.894;2022-08-21T05:42:52;15.95;;;4.27;;
43680;SDS011;29281;50.356;30.894;2022-08-21T05:43:57;12.27;;;3.75;;
43680;SDS011;29281;50.356;30.894;2022-08-21T05:45:02;20.96;;;4.39;;
43680;SDS011;29281;50.356;30.894;2022-08-21T05:46:08;17.18;;;4.09;;
43680;SDS011;29281;50.356;30.894;2022-08-21T05:47:12;18.21;;;4.01;;
43680;SDS011;29281;50.356;30.894;2022-08-21T05:48:19;16.68;;;3.83;;
43680;SDS011;29281;50.356;30.894;2022-08-21T05:49:29;21.38;;;3.78;;
43680;SDS011;29281;50.356;30.894;2022-08-21T05:50:34;18.93;;;3.99;;
43680;SDS011;29281;50.356;30.894;2022-08-21T05:51:40;11.31;;;4.13;;
43680;SDS011;29281;50.356;30.894;2022-08-21T05:52:44;17.76;;;4.14;;
43680;SDS011;29281;50.356;30.894;2022-08-21T05:53:48;14.49;;;3.66;;
43680;SDS011;29281;50.356;30.894;2022-08-21T05:54:52;15.02;;;3.92;;
43680;SDS011;29281;50.356;30.894;2022-08-21T05:55:56;18.34;;;4.04;;
43680;SDS011;29281;50.356;30.894;2022-08-21T05:57:00;13.03;;;3.73;;
43680;SDS011;29281;50.356;30.894;2022-08-21T05:58:03;12.50;;;3.60;;
43680;SDS011;29281;50.356;30.894;2022-08-21T05:59:18;17.42;;;3.71;;
43680;SDS011;29281;50.356;30.894;2022-08-21T06:00:25;13.31;;;4.26;;
43680;SDS011;29281;50.356;30.894;2022-08-21T06:01:30;17.64;;;4.48;;
43680;SDS011;29281;50.356;30.894;2022-08-21T06:02:39;11.62;;;3.41;;
43680;SDS011;29281;50.356;30.894;2022-08-21T06:03:45;15.68;;;3.85;;
43680;SDS011;29281;50.356;30.894;2022-08-21T06:04:47;10.40;;;3.51;;
43680;SDS011;29281;50.356;30.894;2022-08-21T06:05:53;15.22;;;3.67;;
43680;SDS011;29281;50.356;30.894;2022-08-21T06:07:05;13.31;;;3.72;;
43680;SDS011;29281;50.356;30.894;2022-08-21T06:08:12;14.63;;;3.89;;
43680;SDS011;29281;50.356;30.894;2022-08-21T06:09:18;16.35;;;3.70;;
43680;SDS011;29281;50.356;30.894;2022-08-21T06:10:24;11.98;;;3.81;;
43680;SDS011;29281;50.356;30.894;2022-08-21T06:11:29;17.25;;;4.08;;
43680;SDS011;29281;50.356;30.894;2022-08-21T06:12:36;15.06;;;4.74;;
43680;SDS011;29281;50.356;30.894;2022-08-21T06:13:42;17.08;;;4.05;;
43680;SDS011;29281;50.356;30.894;2022-08-21T06:14:46;15.94;;;4.43;;
43680;SDS011;29281;50.356;30.894;2022-08-21T06:15:49;16.71;;;4.01;;
43680;SDS011;29281;50.356;30.894;2022-08-21T06:16:54;18.96;;;3.99;;
43680;SDS011;29281;50.356;30.894;2022-08-21T06:18:20;20.76;;;4.60;;
43680;SDS011;29281;50.356;30.894;2022-08-21T06:19:23;14.34;;;4.08;;
43680;SDS011;29281;50.356;30.894;2022-08-21T06:20:26;13.99;;;3.60;;
43680;SDS011;29281;50.356;30.894;2022-08-21T06:21:30;18.20;;;4.05;;
43680;SDS011;29281;50.356;30.894;2022-08-21T06:22:34;19.32;;;4.48;;
43680;SDS011;29281;50.356;30.894;2022-08-21T06:23:38;17.10;;;4.39;;
43680;SDS011;29281;50.356;30.894;2022-08-21T06:24:43;18.37;;;4.28;;
43680;SDS011;29281;50.356;30.894;2022-08-21T06:25:47;14.18;;;3.97;;
43680;SDS011;29281;50.356;30.894;2022-08-21T06:26:51;15.31;;;4.11;;
43680;SDS011;29281;50.356;30.894;2022-08-21T06:28:02;14.56;;;3.55;;
43680;SDS011;29281;50.356;30.894;2022-08-21T06:29:25;18.07;;;4.72;;
43680;SDS011;29281;50.356;30.894;2022-08-21T06:30:31;19.87;;;4.27;;
43680;SDS011;29281;50.356;30.894;2022-08-21T06:31:35;16.16;;;3.81;;